Time;durP1;ratioP1;P1;durP2;ratioP2;P2;SDS_P1;SDS_P2;PMS_P1;PMS_P2;Temp;Humidity;BMP_temperature;BMP_pressure;BME280_temperature;BME280_humidity;BME280_pressure;Samples;Min_cycle;Max_cycle;Signal;HPM_P1;HPM_P2
2024/04/03 00:01:22;;;;;;;;;3.00;2.00;;;;;;;;5033949;28;8798;-71
2024/04/03 00:03:47;;;;;;;;;1.00;1.00;;;;;;;;5034143;28;8813;-71
2024/04/03 00:06:13;;;;;;;;;2.00;1.00;;;;;;;;5051522;28;9500;-71
2024/04/03 00:08:39;;;;;;;;;2.00;1.00;;;;;;;;5051494;28;9509;-71
2024/04/03 00:11:04;;;;;;;;;1.75;1.75;;;;;;;;5051433;28;11382;-72
2024/04/03 00:13:29;;;;;;;;;1.50;1.50;;;;;;;;5051539;28;8787;-72
2024/04/03 00:15:56;;;;;;;;;2.25;2.00;;;;;;;;5051437;28;8779;-71
2024/04/03 00:18:21;;;;;;;;;2.00;2.00;;;;;;;;5051486;28;8818;-71
2024/04/03 00:20:46;;;;;;;;;1.25;1.25;;;;;;;;5051315;28;11404;-71
2024/04/03 00:23:11;;;;;;;;;5.75;2.50;;;;;;;;5051243;28;8786;-71
2024/04/03 00:25:37;;;;;;;;;2.75;2.00;;;;;;;;5051222;28;8845;-71
2024/04/03 00:28:02;;;;;;;;;2.00;2.00;;;;;;;;5051230;28;8815;-71
2024/04/03 00:30:27;;;;;;;;;3.50;2.25;;;;;;;;5051168;28;8876;-71
2024/04/03 00:32:52;;;;;;;;;1.00;1.00;;;;;;;;5033316;28;9536;-71
2024/04/03 00:35:18;;;;;;;;;4.25;2.00;;;;;;;;5051025;28;8931;-71
2024/04/03 00:37:43;;;;;;;;;4.50;2.00;;;;;;;;5051068;28;8798;-71
2024/04/03 00:40:09;;;;;;;;;2.75;1.00;;;;;;;;5051385;28;8808;-71
2024/04/03 00:42:34;;;;;;;;;2.25;0.75;;;;;;;;5051091;28;8779;-71
2024/04/03 00:45:00;;;;;;;;;0.00;0.00;;;;;;;;5050911;28;11443;-71
2024/04/03 00:47:26;;;;;;;;;1.00;1.00;;;;;;;;5051074;28;8814;-71
2024/04/03 00:49:51;;;;;;;;;3.00;1.00;;;;;;;;5051047;28;8801;-72
2024/04/03 00:52:17;;;;;;;;;1.25;1.25;;;;;;;;5050644;28;8797;-71
2024/04/03 00:54:43;;;;;;;;;1.00;1.00;;;;;;;;5051044;28;8884;-71
2024/04/03 00:57:09;;;;;;;;;2.00;1.00;;;;;;;;5051195;28;9639;-71
2024/04/03 00:59:34;;;;;;;;;5.75;2.00;;;;;;;;5033082;28;8806;-71
2024/04/03 01:02:00;;;;;;;;;1.00;1.00;;;;;;;;5050563;28;11399;-71
2024/04/03 01:04:26;;;;;;;;;2.50;1.00;;;;;;;;5050715;28;8825;-71
2024/04/03 01:06:51;;;;;;;;;2.00;2.00;;;;;;;;5050446;28;8802;-71
2024/04/03 01:09:16;;;;;;;;;1.00;1.00;;;;;;;;5050696;28;8884;-71
2024/04/03 01:11:42;;;;;;;;;2.75;2.00;;;;;;;;5050645;28;8897;-71
2024/04/03 01:14:07;;;;;;;;;2.00;1.00;;;;;;;;5050640;28;8782;-71
2024/04/03 01:16:32;;;;;;;;;1.25;1.25;;;;;;;;5050450;28;8795;-71
2024/04/03 01:18:58;;;;;;;;;1.75;1.75;;;;;;;;5050527;28;8806;-71
2024/04/03 01:21:23;;;;;;;;;1.00;1.00;;;;;;;;5032701;28;9594;-71
2024/04/03 01:23:50;;;;;;;;;1.25;1.00;;;;;;;;5032463;28;8811;-71
2024/04/03 01:26:15;;;;;;;;;2.75;2.00;;;;;;;;5050412;28;8805;-71
2024/04/03 01:28:40;;;;;;;;;1.00;1.00;;;;;;;;5032582;28;11365;-71
2024/04/03 01:31:05;;;;;;;;;2.25;1.50;;;;;;;;5050608;28;8770;-71
2024/04/03 01:33:31;;;;;;;;;2.25;1.00;;;;;;;;5050456;28;8961;-71
2024/04/03 01:35:56;;;;;;;;;1.00;1.00;;;;;;;;5050343;28;8963;-71
2024/04/03 01:38:21;;;;;;;;;3.00;1.00;;;;;;;;5050283;28;8790;-71
2024/04/03 01:40:47;;;;;;;;;1.75;1.00;;;;;;;;5050620;28;8796;-71
2024/04/03 01:43:12;;;;;;;;;1.00;1.00;;;;;;;;5050352;28;8783;-71
2024/04/03 01:45:37;;;;;;;;;1.00;1.00;;;;;;;;5050312;28;8797;-71
2024/04/03 01:48:03;;;;;;;;;2.50;1.50;;;;;;;;5050314;28;8803;-71
2024/04/03 01:50:35;;;;;;;;;1.00;1.00;;;;;;;;5032451;28;8810;-71
2024/04/03 01:53:01;;;;;;;;;1.00;1.00;;;;;;;;5050193;28;8808;-71
2024/04/03 01:55:26;;;;;;;;;2.00;1.25;;;;;;;;5050229;28;12239;-71
2024/04/03 01:57:51;;;;;;;;;2.00;1.00;;;;;;;;5050641;28;9543;-71
2024/04/03 02:00:16;;;;;;;;;2.00;1.75;;;;;;;;5050249;28;8941;-71
2024/04/03 02:02:42;;;;;;;;;3.75;1.00;;;;;;;;5050118;28;8875;-71
2024/04/03 02:05:07;;;;;;;;;1.00;1.00;;;;;;;;5053611;28;8825;-71
2024/04/03 02:07:32;;;;;;;;;2.75;1.00;;;;;;;;5053725;28;8798;-71
2024/04/03 02:09:57;;;;;;;;;2.25;1.00;;;;;;;;5036024;28;8791;-71
2024/04/03 02:12:23;;;;;;;;;1.75;1.00;;;;;;;;5053829;28;8825;-71
2024/04/03 02:14:48;;;;;;;;;1.00;1.00;;;;;;;;5053736;28;8871;-71
2024/04/03 02:17:13;;;;;;;;;1.00;1.00;;;;;;;;5035729;28;8810;-71
2024/04/03 02:19:39;;;;;;;;;1.75;1.25;;;;;;;;5053838;28;8811;-71
2024/04/03 02:22:04;;;;;;;;;1.25;0.00;;;;;;;;5053584;28;8913;-71
2024/04/03 02:24:29;;;;;;;;;0.50;0.50;;;;;;;;5035624;28;8820;-71
2024/04/03 02:26:55;;;;;;;;;1.50;0.00;;;;;;;;5053439;28;8822;-71
2024/04/03 02:29:20;;;;;;;;;0.75;0.00;;;;;;;;5035608;28;8912;-71
2024/04/03 02:31:45;;;;;;;;;1.00;1.00;;;;;;;;5053499;28;8786;-71
2024/04/03 02:34:10;;;;;;;;;1.00;1.00;;;;;;;;5053430;28;8816;-71
2024/04/03 02:36:36;;;;;;;;;2.00;1.00;;;;;;;;5053232;28;8779;-71
2024/04/03 02:39:01;;;;;;;;;0.00;0.00;;;;;;;;5053402;28;9508;-71
2024/04/03 02:41:27;;;;;;;;;0.75;0.00;;;;;;;;5053514;28;8790;-71
2024/04/03 02:43:52;;;;;;;;;2.00;0.00;;;;;;;;5053321;28;9601;-71
2024/04/03 02:46:17;;;;;;;;;2.00;0.00;;;;;;;;5035191;28;8810;-70
2024/04/03 02:48:43;;;;;;;;;5.00;1.00;;;;;;;;5053154;28;8821;-71
2024/04/03 02:51:11;;;;;;;;;1.00;0.00;;;;;;;;5053003;28;9578;-71
2024/04/03 02:53:37;;;;;;;;;0.25;0.00;;;;;;;;5053137;28;8786;-71
2024/04/03 02:56:04;;;;;;;;;0.00;0.00;;;;;;;;5052778;28;11408;-71
2024/04/03 02:58:29;;;;;;;;;2.75;0.00;;;;;;;;5053490;28;8791;-70
2024/04/03 03:01:01;;;;;;;;;1.00;1.00;;;;;;;;5052823;28;11521;-71
2024/04/03 03:03:29;;;;;;;;;0.00;0.00;;;;;;;;5052951;28;8805;-71
2024/04/03 03:05:54;;;;;;;;;5.75;0.00;;;;;;;;5052545;28;11421;-71
2024/04/03 03:08:20;;;;;;;;;1.75;0.00;;;;;;;;5052665;28;11589;-70
2024/04/03 03:10:45;;;;;;;;;2.00;0.25;;;;;;;;5052715;28;8782;-70
2024/04/03 03:13:10;;;;;;;;;1.00;1.00;;;;;;;;5052650;28;8787;-71
2024/04/03 03:15:36;;;;;;;;;0.00;0.00;;;;;;;;5034568;28;9548;-70
2024/04/03 03:18:01;;;;;;;;;3.25;1.00;;;;;;;;5052433;28;8806;-70
2024/04/03 03:20:26;;;;;;;;;1.75;1.00;;;;;;;;5052382;28;8805;-70
2024/04/03 03:22:52;;;;;;;;;1.75;0.50;;;;;;;;5052462;28;8809;-70
2024/04/03 03:25:17;;;;;;;;;2.25;0.25;;;;;;;;5052532;28;8799;-70
2024/04/03 03:27:42;;;;;;;;;0.50;0.50;;;;;;;;5052257;28;8814;-71
2024/04/03 03:30:08;;;;;;;;;1.00;1.00;;;;;;;;5052301;28;8877;-70
2024/04/03 03:32:33;;;;;;;;;0.25;0.25;;;;;;;;5052135;28;8852;-70
2024/04/03 03:34:58;;;;;;;;;1.00;1.00;;;;;;;;5051939;28;8809;-70
2024/04/03 03:37:23;;;;;;;;;0.00;0.00;;;;;;;;5052225;28;8795;-70
2024/04/03 03:39:49;;;;;;;;;2.00;0.50;;;;;;;;5052100;28;8805;-70
2024/04/03 03:42:14;;;;;;;;;1.00;1.00;;;;;;;;5052135;28;8778;-70
2024/04/03 03:44:39;;;;;;;;;4.00;2.50;;;;;;;;5052137;28;8885;-70
2024/04/03 03:47:05;;;;;;;;;5.00;1.00;;;;;;;;5051873;28;9532;-71
2024/04/03 03:55:00;;;;;;;;;2.75;0.75;;;;;;;;5051891;28;11396;-70
2024/04/03 03:57:26;;;;;;;;;2.00;2.00;;;;;;;;5052317;28;11456;-70
2024/04/03 03:59:51;;;;;;;;;2.75;2.75;;;;;;;;5051651;28;11402;-70
2024/04/03 04:02:18;;;;;;;;;1.25;1.25;;;;;;;;5051902;28;11453;-70
2024/04/03 04:04:47;;;;;;;;;1.00;1.00;;;;;;;;5051666;28;8782;-70
2024/04/03 04:07:12;;;;;;;;;1.00;1.00;;;;;;;;5051567;28;11481;-70
2024/04/03 04:09:38;;;;;;;;;2.00;1.00;;;;;;;;5033656;28;11425;-70
2024/04/03 04:12:03;;;;;;;;;2.25;1.00;;;;;;;;5033675;28;8821;-71
2024/04/03 04:14:28;;;;;;;;;1.25;1.00;;;;;;;;5051400;28;8782;-71
2024/04/03 04:16:53;;;;;;;;;1.00;1.00;;;;;;;;5051327;28;8794;-71
2024/04/03 04:19:19;;;;;;;;;0.00;0.00;;;;;;;;5045330;28;8829;-71
2024/04/03 04:21:44;;;;;;;;;0.50;0.50;;;;;;;;5039117;28;8878;-71
2024/04/03 04:24:09;;;;;;;;;3.00;1.00;;;;;;;;5031438;28;8793;-71
2024/04/03 04:26:35;;;;;;;;;15.00;12.50;;;;;;;;5030806;28;8897;-72
2024/04/03 04:29:00;;;;;;;;;9.50;8.00;;;;;;;;5031239;28;8894;-72
2024/04/03 04:31:25;;;;;;;;;10.25;5.25;;;;;;;;5031269;28;8854;-71
2024/04/03 04:33:50;;;;;;;;;13.00;9.75;;;;;;;;5031168;28;8807;-71
2024/04/03 04:36:16;;;;;;;;;14.25;11.50;;;;;;;;5031178;28;8895;-71
2024/04/03 04:38:41;;;;;;;;;13.75;12.25;;;;;;;;5031266;28;8920;-71
2024/04/03 04:41:07;;;;;;;;;17.75;15.25;;;;;;;;5031107;28;8792;-70
2024/04/03 04:43:32;;;;;;;;;14.50;13.00;;;;;;;;5030968;28;8797;-71
2024/04/03 04:46:02;;;;;;;;;5.50;5.00;;;;;;;;5031001;28;8927;-70
2024/04/03 04:48:28;;;;;;;;;5.00;3.25;;;;;;;;5034702;28;8838;-70
2024/04/03 04:50:55;;;;;;;;;3.25;3.25;;;;;;;;5050758;28;11403;-71
2024/04/03 04:53:21;;;;;;;;;6.00;4.50;;;;;;;;5050931;28;11427;-71
2024/04/03 04:55:56;;;;;;;;;5.25;2.00;;;;;;;;5050647;28;12334;-71
2024/04/03 04:58:24;;;;;;;;;2.75;1.50;;;;;;;;5063405;22;8868;-69
2024/04/03 05:00:50;;;;;;;;;2.50;2.50;;;;;;;;5049432;28;11575;-69
2024/04/03 05:03:16;;;;;;;;;4.00;4.00;;;;;;;;5049375;28;11494;-69
2024/04/03 05:05:41;;;;;;;;;5.00;2.00;;;;;;;;5049369;28;8824;-69
2024/04/03 05:08:07;;;;;;;;;6.25;5.25;;;;;;;;5049238;28;8821;-69
2024/04/03 05:10:32;;;;;;;;;6.25;6.00;;;;;;;;5049672;28;8887;-69
2024/04/03 05:12:58;;;;;;;;;13.25;8.50;;;;;;;;5049242;28;8793;-69
2024/04/03 05:15:27;;;;;;;;;11.00;7.00;;;;;;;;5049249;28;8802;-69
2024/04/03 05:17:52;;;;;;;;;7.75;6.00;;;;;;;;5049348;28;8844;-69
2024/04/03 05:20:18;;;;;;;;;7.25;7.25;;;;;;;;5049043;28;11476;-69
2024/04/03 05:22:43;;;;;;;;;7.00;7.00;;;;;;;;5049404;28;8920;-69
2024/04/03 05:25:08;;;;;;;;;8.25;6.50;;;;;;;;5049309;28;9559;-69
2024/04/03 05:27:33;;;;;;;;;7.25;7.25;;;;;;;;5049227;28;8829;-72
2024/04/03 05:29:59;;;;;;;;;6.75;5.00;;;;;;;;5049480;28;8888;-69
2024/04/03 05:32:24;;;;;;;;;9.00;8.50;;;;;;;;5049296;28;9538;-71
2024/04/03 05:34:50;;;;;;;;;8.00;8.00;;;;;;;;5047722;28;8813;-69
2024/04/03 05:37:15;;;;;;;;;8.50;8.50;;;;;;;;5049516;28;9165;-69
2024/04/03 05:39:40;;;;;;;;;3.00;3.00;;;;;;;;5051038;28;8794;-71
2024/04/03 05:42:05;;;;;;;;;7.50;6.25;;;;;;;;5053197;28;8789;-68
2024/04/03 05:44:31;;;;;;;;;7.00;7.00;;;;;;;;5053294;28;8782;-68
2024/04/03 05:46:56;;;;;;;;;6.00;4.00;;;;;;;;5049862;28;8885;-69
2024/04/03 05:49:21;;;;;;;;;6.50;5.50;;;;;;;;5053028;28;8809;-71
2024/04/03 05:51:46;;;;;;;;;4.75;3.00;;;;;;;;5051596;28;8808;-70
2024/04/03 05:54:12;;;;;;;;;3.00;3.00;;;;;;;;5053228;28;8813;-71
2024/04/03 05:56:37;;;;;;;;;6.50;3.00;;;;;;;;5050329;28;8891;-68
2024/04/03 05:59:02;;;;;;;;;4.75;4.75;;;;;;;;5051360;28;8849;-71
2024/04/03 06:01:27;;;;;;;;;6.00;5.00;;;;;;;;5052918;28;8793;-71
2024/04/03 06:03:53;;;;;;;;;3.00;3.00;;;;;;;;5052768;28;8840;-72
2024/04/03 06:06:18;;;;;;;;;5.25;5.25;;;;;;;;5052333;28;8773;-69
2024/04/03 06:08:43;;;;;;;;;5.25;5.00;;;;;;;;5050816;28;8820;-68
2024/04/03 06:11:08;;;;;;;;;3.25;3.25;;;;;;;;5050624;28;8916;-68
2024/04/03 06:13:34;;;;;;;;;2.25;2.25;;;;;;;;5052224;28;8766;-68
2024/04/03 06:15:59;;;;;;;;;6.75;4.50;;;;;;;;5052307;28;9025;-68
2024/04/03 06:18:24;;;;;;;;;3.50;2.50;;;;;;;;5052507;28;8808;-70
2024/04/03 06:20:50;;;;;;;;;5.00;5.00;;;;;;;;5052329;28;8797;-69
2024/04/03 06:23:15;;;;;;;;;5.00;3.00;;;;;;;;5052339;28;8902;-69
2024/04/03 06:25:41;;;;;;;;;5.25;1.50;;;;;;;;5052252;28;9339;-68
2024/04/03 06:28:07;;;;;;;;;6.50;5.00;;;;;;;;5050783;28;8817;-69
2024/04/03 06:30:32;;;;;;;;;5.25;5.00;;;;;;;;5052340;28;8813;-70
2024/04/03 06:32:57;;;;;;;;;3.25;3.25;;;;;;;;5052139;28;8797;-70
2024/04/03 06:35:24;;;;;;;;;6.50;2.25;;;;;;;;5052056;28;8848;-70
2024/04/03 06:37:49;;;;;;;;;12.25;5.25;;;;;;;;5052422;28;8920;-71
2024/04/03 06:40:17;;;;;;;;;6.75;6.00;;;;;;;;5050466;28;11631;-72
2024/04/03 06:42:42;;;;;;;;;6.50;3.00;;;;;;;;5052230;28;8797;-70
2024/04/03 06:45:08;;;;;;;;;33.75;15.00;;;;;;;;5052129;28;11457;-70
2024/04/03 06:47:33;;;;;;;;;9.75;7.25;;;;;;;;5050976;28;8821;-73
2024/04/03 06:49:58;;;;;;;;;7.00;7.00;;;;;;;;5051691;28;8943;-72
2024/04/03 06:52:24;;;;;;;;;4.00;4.00;;;;;;;;5052143;28;8781;-71
2024/04/03 06:54:49;;;;;;;;;9.50;5.75;;;;;;;;5051950;28;8778;-70
2024/04/03 06:57:14;;;;;;;;;5.75;5.75;;;;;;;;5052045;28;8875;-69
2024/04/03 06:59:40;;;;;;;;;11.00;7.00;;;;;;;;5050493;28;8853;-70
2024/04/03 07:02:05;;;;;;;;;10.25;9.00;;;;;;;;5051819;28;8766;-68
2024/04/03 07:04:30;;;;;;;;;10.00;8.50;;;;;;;;5051612;28;8874;-68
2024/04/03 07:06:56;;;;;;;;;9.50;9.00;;;;;;;;5051645;28;8817;-67
2024/04/03 07:09:21;;;;;;;;;8.25;8.25;;;;;;;;5051745;28;8774;-67
2024/04/03 07:11:46;;;;;;;;;9.00;9.00;;;;;;;;5051609;28;8821;-67
2024/04/03 07:14:11;;;;;;;;;13.50;11.00;;;;;;;;5051502;28;8804;-71
2024/04/03 07:16:37;;;;;;;;;10.50;9.00;;;;;;;;5051327;28;8843;-66
2024/04/03 07:19:02;;;;;;;;;9.25;9.25;;;;;;;;5051440;28;8818;-68
2024/04/03 07:21:27;;;;;;;;;8.00;7.00;;;;;;;;5051430;28;8798;-67
2024/04/03 07:23:53;;;;;;;;;9.50;8.00;;;;;;;;5051338;28;8824;-67
2024/04/03 07:26:19;;;;;;;;;9.00;7.00;;;;;;;;5051143;28;8849;-66
2024/04/03 07:28:44;;;;;;;;;7.00;7.00;;;;;;;;5049822;28;9602;-66
2024/04/03 07:31:10;;;;;;;;;11.75;8.50;;;;;;;;5051163;28;11494;-66
2024/04/03 07:33:35;;;;;;;;;10.50;9.00;;;;;;;;5047999;28;8918;-66
2024/04/03 07:36:01;;;;;;;;;11.25;9.00;;;;;;;;5051228;28;8928;-67
2024/04/03 07:38:27;;;;;;;;;8.50;8.50;;;;;;;;5051137;28;9613;-66
2024/04/03 07:40:54;;;;;;;;;11.50;9.50;;;;;;;;5050894;28;11500;-68
2024/04/03 07:43:19;;;;;;;;;14.00;7.00;;;;;;;;5050993;28;9249;-68
2024/04/03 07:45:45;;;;;;;;;12.75;10.50;;;;;;;;5049426;28;11598;-69
2024/04/03 07:48:10;;;;;;;;;15.25;12.50;;;;;;;;5050643;28;8847;-69
2024/04/03 07:50:35;;;;;;;;;15.25;11.00;;;;;;;;5050919;28;8789;-69
2024/04/03 07:53:00;;;;;;;;;12.75;11.00;;;;;;;;5050941;28;8879;-68
2024/04/03 07:55:35;;;;;;;;;15.25;12.25;;;;;;;;5050746;28;8797;-69
2024/04/03 07:58:03;;;;;;;;;21.25;14.25;;;;;;;;5050671;28;8829;-69
2024/04/03 08:00:28;;;;;;;;;12.50;12.50;;;;;;;;5050265;28;11706;-68
2024/04/03 08:02:54;;;;;;;;;19.50;12.50;;;;;;;;5049849;28;11505;-69
2024/04/03 08:05:19;;;;;;;;;16.50;13.00;;;;;;;;5050579;28;8900;-69
2024/04/03 08:07:45;;;;;;;;;12.50;12.50;;;;;;;;5050430;28;8805;-69
2024/04/03 08:10:12;;;;;;;;;19.00;14.00;;;;;;;;5050394;28;8785;-69
2024/04/03 08:12:38;;;;;;;;;14.75;14.25;;;;;;;;5050590;28;8778;-69
2024/04/03 08:15:03;;;;;;;;;15.00;14.00;;;;;;;;5050215;28;11522;-69
2024/04/03 08:17:29;;;;;;;;;9.75;9.00;;;;;;;;5048787;28;11542;-69
2024/04/03 08:19:55;;;;;;;;;18.75;11.50;;;;;;;;5050290;28;8793;-69
2024/04/03 08:22:21;;;;;;;;;13.00;10.25;;;;;;;;5050070;28;8801;-69
2024/04/03 08:24:46;;;;;;;;;9.50;9.25;;;;;;;;5050058;28;12414;-68
2024/04/03 08:27:12;;;;;;;;;6.75;6.75;;;;;;;;5050180;28;8817;-68
2024/04/03 08:29:39;;;;;;;;;15.50;10.25;;;;;;;;5050058;28;8797;-68
2024/04/03 08:32:15;;;;;;;;;8.50;7.00;;;;;;;;5048373;28;8894;-68
2024/04/03 08:34:40;;;;;;;;;14.25;7.00;;;;;;;;5049900;28;12228;-69
2024/04/03 08:37:06;;;;;;;;;10.75;9.25;;;;;;;;5049857;28;11430;-68
2024/04/03 08:39:34;;;;;;;;;10.00;7.00;;;;;;;;5049868;28;8828;-68
2024/04/03 08:42:00;;;;;;;;;13.75;11.00;;;;;;;;5050029;28;9591;-68
2024/04/03 08:44:30;;;;;;;;;13.00;11.00;;;;;;;;5049840;28;11485;-68
2024/04/03 08:46:56;;;;;;;;;13.00;11.75;;;;;;;;5049613;28;12030;-68
2024/04/03 08:49:22;;;;;;;;;12.75;9.50;;;;;;;;5049702;28;11435;-68
2024/04/03 08:52:06;;;;;;;;;11.00;7.00;;;;;;;;5049913;28;8801;-68
2024/04/03 08:54:32;;;;;;;;;14.75;12.00;;;;;;;;5049877;28;11417;-68
2024/04/03 08:56:59;;;;;;;;;12.75;11.00;;;;;;;;5049534;28;12230;-69
2024/04/03 08:59:24;;;;;;;;;14.75;10.00;;;;;;;;5049611;28;9681;-68
2024/04/03 09:01:50;;;;;;;;;11.00;10.00;;;;;;;;5048058;28;11651;-69
2024/04/03 09:04:16;;;;;;;;;8.50;8.50;;;;;;;;5049485;28;8789;-70
2024/04/03 09:06:42;;;;;;;;;8.00;8.00;;;;;;;;5048190;28;11202;-70
2024/04/03 09:09:14;;;;;;;;;10.75;10.00;;;;;;;;5049521;28;12224;-69
2024/04/03 09:11:43;;;;;;;;;7.00;6.00;;;;;;;;5049603;28;8862;-68
2024/04/03 09:14:09;;;;;;;;;8.75;7.75;;;;;;;;5049115;28;11403;-68
2024/04/03 09:16:34;;;;;;;;;8.50;8.50;;;;;;;;5049154;28;11499;-67
2024/04/03 09:19:06;;;;;;;;;10.25;7.75;;;;;;;;5049234;28;8786;-66
2024/04/03 09:21:32;;;;;;;;;12.00;11.00;;;;;;;;5049288;28;8882;-66
2024/04/03 09:23:57;;;;;;;;;7.25;3.75;;;;;;;;5049217;28;11416;-67
2024/04/03 09:26:24;;;;;;;;;11.75;11.75;;;;;;;;5047965;28;8900;-67
2024/04/03 09:28:59;;;;;;;;;14.50;12.25;;;;;;;;5048873;28;8843;-67
2024/04/03 09:31:25;;;;;;;;;12.50;11.00;;;;;;;;5048784;28;11111;-68
2024/04/03 09:33:51;;;;;;;;;10.50;9.50;;;;;;;;5049186;28;11425;-67
2024/04/03 09:36:17;;;;;;;;;12.25;10.00;;;;;;;;5049133;28;8809;-67
2024/04/03 09:38:43;;;;;;;;;6.75;6.75;;;;;;;;5049109;28;8793;-66
2024/04/03 09:41:09;;;;;;;;;21.75;16.00;;;;;;;;5049034;28;11609;-67
2024/04/03 09:43:36;;;;;;;;;13.25;11.00;;;;;;;;5048822;28;11509;-66
2024/04/03 09:46:06;;;;;;;;;11.00;10.00;;;;;;;;5048206;28;8782;-66
2024/04/03 09:48:34;;;;;;;;;12.50;10.50;;;;;;;;5048651;28;11498;-65
2024/04/03 09:50:59;;;;;;;;;11.25;11.25;;;;;;;;5046088;28;11429;-65
2024/04/03 09:53:27;;;;;;;;;15.00;12.00;;;;;;;;5048419;28;11433;-65
2024/04/03 09:55:52;;;;;;;;;16.00;12.00;;;;;;;;5048500;28;8770;-65
2024/04/03 09:58:19;;;;;;;;;14.75;11.50;;;;;;;;5047982;28;11541;-66
2024/04/03 10:00:51;;;;;;;;;10.50;9.00;;;;;;;;5045863;28;8923;-66
2024/04/03 10:03:26;;;;;;;;;12.00;8.75;;;;;;;;5048234;28;11527;-66
2024/04/03 10:06:02;;;;;;;;;14.50;11.00;;;;;;;;5046789;28;11441;-66
2024/04/03 10:08:34;;;;;;;;;12.00;11.00;;;;;;;;5048983;28;11231;-66
2024/04/03 10:11:03;;;;;;;;;13.75;12.00;;;;;;;;5049081;28;11432;-67
2024/04/03 10:13:29;;;;;;;;;19.50;12.50;;;;;;;;5048912;28;11428;-67
2024/04/03 10:16:05;;;;;;;;;14.50;13.50;;;;;;;;5047396;28;11508;-68
2024/04/03 10:18:34;;;;;;;;;13.00;13.00;;;;;;;;5048892;28;8806;-71
2024/04/03 10:21:00;;;;;;;;;14.50;12.50;;;;;;;;5048971;28;11499;-68
2024/04/03 10:23:28;;;;;;;;;11.75;11.00;;;;;;;;5048676;28;12182;-68
2024/04/03 10:25:53;;;;;;;;;15.25;9.50;;;;;;;;5051897;28;8824;-70
2024/04/03 10:28:18;;;;;;;;;13.25;11.25;;;;;;;;5051085;28;11101;-69
2024/04/03 10:30:46;;;;;;;;;11.25;11.25;;;;;;;;5051580;28;8812;-69
2024/04/03 10:33:12;;;;;;;;;14.25;11.50;;;;;;;;5051964;28;8766;-69
2024/04/03 10:35:37;;;;;;;;;11.50;10.50;;;;;;;;5051785;28;11479;-69
2024/04/03 10:38:03;;;;;;;;;14.00;11.50;;;;;;;;5052014;28;9624;-69
2024/04/03 10:40:31;;;;;;;;;13.25;12.25;;;;;;;;5051864;28;8894;-69
2024/04/03 10:42:56;;;;;;;;;11.75;11.00;;;;;;;;5049028;28;8874;-69
2024/04/03 10:45:21;;;;;;;;;13.25;12.00;;;;;;;;5051407;28;12146;-69
2024/04/03 10:47:47;;;;;;;;;11.00;11.00;;;;;;;;5051255;28;8825;-69
2024/04/03 10:50:13;;;;;;;;;14.00;12.75;;;;;;;;5051782;28;8829;-71
2024/04/03 10:52:38;;;;;;;;;13.50;12.00;;;;;;;;5052084;28;12198;-70
2024/04/03 10:55:04;;;;;;;;;22.25;19.50;;;;;;;;5051890;28;8805;-70
2024/04/03 10:57:29;;;;;;;;;15.75;12.75;;;;;;;;5051888;28;8866;-71
2024/04/03 10:59:55;;;;;;;;;13.25;13.00;;;;;;;;5051826;28;8837;-69
2024/04/03 11:02:21;;;;;;;;;15.50;13.50;;;;;;;;5051467;28;8918;-71
2024/04/03 11:04:48;;;;;;;;;13.25;11.00;;;;;;;;5051742;28;8785;-71
2024/04/03 11:07:14;;;;;;;;;9.00;9.00;;;;;;;;5051801;28;8821;-70
2024/04/03 11:09:40;;;;;;;;;10.50;10.50;;;;;;;;5050449;28;10452;-72
2024/04/03 11:12:05;;;;;;;;;14.00;13.50;;;;;;;;5048865;28;8882;-72
2024/04/03 11:14:31;;;;;;;;;14.00;11.75;;;;;;;;5047754;28;11149;-71
2024/04/03 11:16:56;;;;;;;;;14.50;14.00;;;;;;;;5049478;28;8793;-72
2024/04/03 11:19:22;;;;;;;;;14.00;12.50;;;;;;;;5049456;28;8811;-71
2024/04/03 11:21:47;;;;;;;;;14.00;13.25;;;;;;;;5049494;28;8890;-72
2024/04/03 11:24:12;;;;;;;;;16.25;14.25;;;;;;;;5049167;28;8794;-71
2024/04/03 11:26:38;;;;;;;;;11.75;11.75;;;;;;;;5048236;28;8801;-71
2024/04/03 11:29:23;;;;;;;;;12.75;11.50;;;;;;;;5049984;28;8801;-72
2024/04/03 11:31:49;;;;;;;;;11.25;10.00;;;;;;;;5051415;28;8835;-72
2024/04/03 11:34:14;;;;;;;;;11.75;11.00;;;;;;;;5051142;28;10722;-71
2024/04/03 11:36:39;;;;;;;;;14.00;11.25;;;;;;;;5049917;28;8798;-72
2024/04/03 11:39:04;;;;;;;;;15.00;11.50;;;;;;;;5051135;28;8805;-72
2024/04/03 11:41:30;;;;;;;;;11.00;9.00;;;;;;;;5051264;28;8789;-72
2024/04/03 11:43:55;;;;;;;;;9.50;8.50;;;;;;;;5051004;28;8785;-71
2024/04/03 11:46:20;;;;;;;;;10.25;10.25;;;;;;;;5051128;28;8905;-72
2024/04/03 11:48:45;;;;;;;;;10.75;8.75;;;;;;;;5050912;28;8840;-73
2024/04/03 11:51:11;;;;;;;;;9.00;7.00;;;;;;;;5051037;28;8801;-71
2024/04/03 11:53:36;;;;;;;;;8.25;7.75;;;;;;;;5050910;28;8789;-72
2024/04/03 11:56:01;;;;;;;;;7.00;6.00;;;;;;;;5049708;28;8794;-71
2024/04/03 11:58:26;;;;;;;;;7.50;6.50;;;;;;;;5064523;23;9050;-70
2024/04/03 12:00:52;;;;;;;;;4.75;4.75;;;;;;;;5050339;28;8801;-70
2024/04/03 12:03:17;;;;;;;;;5.25;4.75;;;;;;;;5050191;28;8801;-70
2024/04/03 12:05:43;;;;;;;;;4.00;4.00;;;;;;;;5050904;28;8777;-70
2024/04/03 12:08:08;;;;;;;;;5.75;4.00;;;;;;;;5051759;28;8818;-69
2024/04/03 12:10:33;;;;;;;;;4.75;4.00;;;;;;;;5051593;28;8762;-70
2024/04/03 12:12:58;;;;;;;;;5.25;3.50;;;;;;;;5051589;28;8786;-70
2024/04/03 12:15:24;;;;;;;;;4.75;3.25;;;;;;;;5051613;28;9608;-69
2024/04/03 12:17:49;;;;;;;;;3.50;3.50;;;;;;;;5051400;28;8774;-71
2024/04/03 12:20:14;;;;;;;;;5.00;3.25;;;;;;;;5051417;28;8970;-70
2024/04/03 12:22:40;;;;;;;;;4.75;3.00;;;;;;;;5051375;28;8927;-70
2024/04/03 12:25:05;;;;;;;;;3.00;3.00;;;;;;;;5051151;28;8847;-70
2024/04/03 12:27:30;;;;;;;;;9.25;4.00;;;;;;;;5051146;28;8821;-70
2024/04/03 12:29:57;;;;;;;;;4.00;2.25;;;;;;;;5051171;28;8786;-69
2024/04/03 12:32:24;;;;;;;;;6.75;3.00;;;;;;;;5051054;28;8789;-69
2024/04/03 12:34:49;;;;;;;;;4.75;4.75;;;;;;;;5051075;28;10322;-69
2024/04/03 12:37:17;;;;;;;;;3.50;3.50;;;;;;;;5051091;28;10087;-70
2024/04/03 12:39:43;;;;;;;;;5.75;4.25;;;;;;;;5050015;28;9539;-70
2024/04/03 12:42:10;;;;;;;;;8.50;6.00;;;;;;;;5051028;28;10249;-70
2024/04/03 12:44:35;;;;;;;;;6.00;5.00;;;;;;;;5050836;28;10189;-71
2024/04/03 12:47:06;;;;;;;;;6.25;4.75;;;;;;;;5049102;28;10311;-70
2024/04/03 12:49:32;;;;;;;;;5.25;5.00;;;;;;;;5051010;28;8773;-70
2024/04/03 12:51:58;;;;;;;;;7.25;5.25;;;;;;;;5050728;28;11338;-70
2024/04/03 12:54:25;;;;;;;;;7.75;6.25;;;;;;;;5050851;28;9507;-70
2024/04/03 12:56:51;;;;;;;;;6.75;5.00;;;;;;;;5050842;28;10765;-70
2024/04/03 12:59:16;;;;;;;;;4.00;4.00;;;;;;;;5051343;28;9969;-70
2024/04/03 13:01:42;;;;;;;;;6.00;6.00;;;;;;;;5049303;28;8801;-70
2024/04/03 13:04:10;;;;;;;;;4.50;4.50;;;;;;;;5049383;28;8890;-70
2024/04/03 13:06:38;;;;;;;;;5.00;4.00;;;;;;;;5050710;28;8817;-70
2024/04/03 13:09:11;;;;;;;;;4.00;4.00;;;;;;;;5050627;28;9814;-70
2024/04/03 13:11:37;;;;;;;;;3.00;3.00;;;;;;;;5050682;28;10123;-69
2024/04/03 13:14:02;;;;;;;;;3.75;3.00;;;;;;;;5050398;28;10793;-70
2024/04/03 13:16:27;;;;;;;;;3.00;3.00;;;;;;;;5050533;28;8774;-70
2024/04/03 13:18:52;;;;;;;;;2.50;2.50;;;;;;;;5050536;28;8801;-69
2024/04/03 13:21:19;;;;;;;;;3.00;3.00;;;;;;;;5050545;28;8899;-69
2024/04/03 13:23:44;;;;;;;;;2.00;2.00;;;;;;;;5050546;28;8812;-70
2024/04/03 13:26:11;;;;;;;;;2.50;2.50;;;;;;;;5050425;28;9947;-69
2024/04/03 13:28:37;;;;;;;;;2.00;1.25;;;;;;;;5050377;28;8817;-72
2024/04/03 13:31:02;;;;;;;;;2.00;2.00;;;;;;;;5050494;28;10913;-71
2024/04/03 13:33:29;;;;;;;;;4.00;2.25;;;;;;;;5050428;28;8785;-70
2024/04/03 13:35:54;;;;;;;;;3.00;3.00;;;;;;;;5050340;28;8808;-70
2024/04/03 13:38:19;;;;;;;;;3.75;2.75;;;;;;;;5050342;28;10274;-70
2024/04/03 13:40:46;;;;;;;;;2.00;2.00;;;;;;;;5050399;28;8808;-69
2024/04/03 13:43:11;;;;;;;;;2.25;2.00;;;;;;;;5048908;28;8813;-70
2024/04/03 13:45:36;;;;;;;;;3.00;2.00;;;;;;;;5050322;28;10087;-70
2024/04/03 13:48:02;;;;;;;;;2.50;2.50;;;;;;;;5049019;28;8956;-70
2024/04/03 13:50:28;;;;;;;;;4.00;4.00;;;;;;;;5050365;28;8920;-70
2024/04/03 13:52:53;;;;;;;;;1.50;1.50;;;;;;;;5050191;28;11486;-70
2024/04/03 13:55:18;;;;;;;;;3.50;3.50;;;;;;;;5050224;28;8816;-69
2024/04/03 13:57:47;;;;;;;;;2.50;2.25;;;;;;;;5050475;28;8790;-69
2024/04/03 14:00:21;;;;;;;;;5.00;4.00;;;;;;;;5052232;28;8896;-70
2024/04/03 14:02:46;;;;;;;;;3.50;2.00;;;;;;;;5054193;28;10065;-70
2024/04/03 14:05:13;;;;;;;;;1.00;1.00;;;;;;;;5052645;28;9486;-70
2024/04/03 14:07:38;;;;;;;;;2.75;2.00;;;;;;;;5053988;28;8821;-70
2024/04/03 14:10:04;;;;;;;;;2.00;2.00;;;;;;;;5054049;28;9379;-71
2024/04/03 14:12:29;;;;;;;;;2.00;2.00;;;;;;;;5053770;28;8846;-70
2024/04/03 14:14:54;;;;;;;;;2.00;1.00;;;;;;;;5053809;28;9557;-70
2024/04/03 14:17:19;;;;;;;;;2.00;2.00;;;;;;;;5053882;28;8793;-72
2024/04/03 14:19:45;;;;;;;;;2.75;2.00;;;;;;;;5053779;28;9745;-73
2024/04/03 14:22:10;;;;;;;;;2.75;2.75;;;;;;;;5053726;28;8778;-73
2024/04/03 14:24:37;;;;;;;;;4.00;2.75;;;;;;;;5053592;28;8832;-72
2024/04/03 14:27:03;;;;;;;;;4.25;4.25;;;;;;;;5053514;28;8823;-72
2024/04/03 14:29:29;;;;;;;;;2.50;2.50;;;;;;;;5053635;28;9989;-71
2024/04/03 14:31:54;;;;;;;;;3.50;3.50;;;;;;;;5053511;28;10385;-72
2024/04/03 14:34:21;;;;;;;;;1.00;1.00;;;;;;;;5053480;28;8773;-72
2024/04/03 14:36:47;;;;;;;;;1.00;1.00;;;;;;;;5053436;28;8802;-73
2024/04/03 14:39:14;;;;;;;;;3.50;1.00;;;;;;;;5052102;28;9162;-73
2024/04/03 14:41:39;;;;;;;;;3.50;1.00;;;;;;;;5053298;28;8790;-73
2024/04/03 14:44:05;;;;;;;;;1.00;1.00;;;;;;;;5053499;28;9316;-72